KMNV Weather Reports


Display with metric or nautical units.
time (UTC)temp
F
wind
direction
speed
MPH
gust
MPH
rain 1hr
in
rain 24hr
in
rain mn
in
humidity
%
barometer
mb
20190424084520 55 0 0.0 0.0 0.00 0.00 0.00 8
20190424082527 54 0 0.0 0.0 0.00 0.00 0.00 9
20190424080531 55 250 3.0 0.0 0.00 0.00 0.00 8
20190424074711 55 0 0.0 0.0 0.00 0.00 0.00 8
20190424072529 55 0 0.0 0.0 0.00 0.00 0.00 8
20190424070546 57 0 0.0 0.0 0.00 0.00 0.00 8
20190424064528 55 0 0.0 0.0 0.00 0.00 0.00 8
20190424062528 59 0 0.0 0.0 0.00 0.00 0.00 7
20190424060530 59 0 0.0 0.0 0.00 0.00 0.00 7
20190424054526 59 240 3.0 0.0 0.00 0.00 0.00 7
20190424052530 61 250 3.0 0.0 0.00 0.00 0.00 7
20190424050536 61 0 0.0 0.0 0.00 0.00 0.00 7
20190424044612 61 240 3.0 0.0 0.00 0.00 0.00 7
20190424042531 61 280 5.0 0.0 0.00 0.00 0.00 7
20190424040542 63 0 0.0 0.0 0.00 0.00 0.00 6
20190424034533 64 250 6.0 0.0 0.00 0.00 0.00 6
20190424032519 66 250 5.0 0.0 0.00 0.00 0.00 5
20190424030520 66 250 5.0 0.0 0.00 0.00 0.00 5
20190424024536 68 220 5.0 0.0 0.00 0.00 0.00 5
20190424022527 70 0 0.0 0.0 0.00 0.00 0.00 4
20190424020549 70 280 8.0 0.0 0.00 0.00 0.00 4
20190424012526 72 230 5.0 0.0 0.00 0.00 0.00 5
20190424010532 72 230 5.0 0.0 0.00 0.00 0.00 5
20190424004536 72 230 5.0 0.0 0.00 0.00 0.00 5
20190424002549 73 220 5.0 0.0 0.00 0.00 0.00 4
20190424000531 75 230 5.0 0.0 0.00 0.00 0.00 4
20190423234531 75 220 6.0 0.0 0.00 0.00 0.00 4
20190423232536 77 220 5.0 0.0 0.00 0.00 0.00 4
20190423230528 79 210 7.0 0.0 0.00 0.00 0.00 3
20190423224530 79 210 7.0 0.0 0.00 0.00 0.00 4
20190423220534 79 210 8.0 14.0 0.00 0.00 0.00 3
20190423214537 79 210 8.0 14.0 0.00 0.00 0.00 3
20190423212536 79 210 8.0 14.0 0.00 0.00 0.00 3
20190423210535 81 260 8.0 0.0 0.00 0.00 0.00 3
20190423204543 79 240 10.0 0.0 0.00 0.00 0.00 4
20190423202546 79 220 9.0 15.0 0.00 0.00 0.00 4
20190423200536 79 210 13.0 0.0 0.00 0.00 0.00 4
20190423194533 79 220 12.0 0.0 0.00 0.00 0.00 4
20190423192530 79 210 10.0 17.0 0.00 0.00 0.00 4
20190423190543 79 210 7.0 16.0 0.00 0.00 0.00 4
20190423184552 79 270 7.0 15.0 0.00 0.00 0.00 4
20190423182540 79 250 8.0 0.0 0.00 0.00 0.00 4
20190423180536 79 240 8.0 15.0 0.00 0.00 0.00 4
20190423174651 77 230 9.0 0.0 0.00 0.00 0.00 4
20190423172542 77 240 10.0 16.0 0.00 0.00 0.00 4
20190423164533 77 0 7.0 0.0 0.00 0.00 0.00 4
20190423162536 75 0 7.0 0.0 0.00 0.00 0.00 5
20190423160541 73 220 8.0 0.0 0.00 0.00 0.00 5
20190423154525 73 210 10.0 0.0 0.00 0.00 0.00 5
20190423152542 72 240 8.0 0.0 0.00 0.00 0.00 5
20190423144539 70 210 7.0 0.0 0.00 0.00 0.00 5
20190423142529 68 0 0.0 0.0 0.00 0.00 0.00 6
20190423140535 66 0 0.0 0.0 0.00 0.00 0.00 6
20190423134549 64 0 0.0 0.0 0.00 0.00 0.00 7
20190423132528 61 0 0.0 0.0 0.00 0.00 0.00 7
20190423130533 59 0 0.0 0.0 0.00 0.00 0.00 7
20190423124534 55 0 0.0 0.0 0.00 0.00 0.00 9
20190423122531 52 0 0.0 0.0 0.00 0.00 0.00 10
20190423120541 50 0 0.0 0.0 0.00 0.00 0.00 10
20190423112529 48 0 0.0 0.0 0.00 0.00 0.00 10
20190423110533 48 0 0.0 0.0 0.00 0.00 0.00 10
20190423104533 48 0 0.0 0.0 0.00 0.00 0.00 10
20190423102523 48 0 0.0 0.0 0.00 0.00 0.00 10
20190423100520 48 0 0.0 0.0 0.00 0.00 0.00 10
20190423094526 48 0 0.0 0.0 0.00 0.00 0.00 10
20190423092534 48 0 0.0 0.0 0.00 0.00 0.00 10
20190423090535 48 0 0.0 0.0 0.00 0.00 0.00 10